createdAt,value
2022-09-17T00:00:02.006Z,9.29
2022-09-17T00:05:01.515Z,9.34
2022-09-17T00:10:01.762Z,9.61
2022-09-17T00:15:01.821Z,9.53
2022-09-17T00:20:01.343Z,9.5
2022-09-17T00:25:02.035Z,9.52
2022-09-17T00:30:01.241Z,9.52
2022-09-17T00:35:01.765Z,9.57
2022-09-17T00:40:02.067Z,9.57
2022-09-17T00:45:01.324Z,9.59
2022-09-17T00:50:01.621Z,9.63
2022-09-17T00:55:01.373Z,9.67
2022-09-17T01:00:01.369Z,9.7
2022-09-17T01:05:02.118Z,9.77
2022-09-17T01:10:01.330Z,9.71
2022-09-17T01:15:01.973Z,9.99
2022-09-17T01:20:02.000Z,9.86
2022-09-17T01:25:01.394Z,9.83
2022-09-17T01:30:01.935Z,9.8
2022-09-17T01:35:02.216Z,10
2022-09-17T01:40:02.076Z,9.81
2022-09-17T01:45:01.516Z,10.04
2022-09-17T01:50:02.126Z,9.86
2022-09-17T01:55:01.683Z,10.04
2022-09-17T02:00:01.298Z,9.84
2022-09-17T02:05:01.334Z,9.85
2022-09-17T02:10:01.314Z,9.93
2022-09-17T02:15:01.331Z,9.85
2022-09-17T02:20:01.607Z,10.06
2022-09-17T02:25:01.286Z,9.91
2022-09-17T02:30:02.117Z,9.88
2022-09-17T02:35:01.451Z,10.01
2022-09-17T02:40:01.297Z,9.98
2022-09-17T02:45:01.542Z,9.89
2022-09-17T02:50:01.138Z,9.81
2022-09-17T02:55:01.972Z,9.77
2022-09-17T03:00:01.560Z,9.88
2022-09-17T03:05:02.100Z,9.71
2022-09-17T03:10:01.324Z,9.67
2022-09-17T03:15:02.058Z,9.68
2022-09-17T03:20:01.296Z,9.77
2022-09-17T03:25:01.594Z,9.78
2022-09-17T03:30:01.245Z,9.96
2022-09-17T03:35:01.893Z,9.93
2022-09-17T03:40:01.511Z,9.96
2022-09-17T03:45:01.727Z,9.97
2022-09-17T03:50:01.986Z,10.04
2022-09-17T03:55:01.985Z,10.06
2022-09-17T04:00:01.962Z,9.94
2022-09-17T04:05:02.082Z,10
2022-09-17T04:10:02.097Z,10
2022-09-17T04:15:01.556Z,10
2022-09-17T04:20:01.263Z,9.93
2022-09-17T04:25:01.649Z,10
2022-09-17T04:30:01.984Z,9.99
2022-09-17T04:35:01.729Z,9.96
2022-09-17T04:40:05.713Z,10
2022-09-17T04:45:02.054Z,9.97
2022-09-17T04:50:01.717Z,9.86
2022-09-17T04:55:01.406Z,9.94
2022-09-17T05:00:01.589Z,9.97
2022-09-17T05:05:01.473Z,9.97
2022-09-17T05:10:02.093Z,10
2022-09-17T05:15:02.074Z,9.97
2022-09-17T05:20:01.545Z,10
2022-09-17T05:25:02.003Z,10.03
2022-09-17T05:30:01.249Z,10.01
2022-09-17T05:35:04.789Z,9.86
2022-09-17T05:40:01.934Z,9.92
2022-09-17T05:45:01.687Z,9.9
2022-09-17T05:50:01.867Z,10
2022-09-17T05:55:02.046Z,10
2022-09-17T06:00:02.082Z,9.99
2022-09-17T06:05:01.606Z,9.98
2022-09-17T06:10:02.098Z,10.18
2022-09-17T06:15:01.814Z,10.18
2022-09-17T06:20:01.398Z,10.49
2022-09-17T06:25:01.389Z,10.45
2022-09-17T06:30:01.407Z,10.42
2022-09-17T06:35:01.995Z,10.53
2022-09-17T06:40:01.766Z,10.65
2022-09-17T06:45:07.141Z,10.94
2022-09-17T06:50:02.092Z,11.17
2022-09-17T06:55:01.963Z,11.15
2022-09-17T07:00:01.351Z,11.29
2022-09-17T07:05:01.668Z,11.53
2022-09-17T07:10:01.443Z,11.88
2022-09-17T07:15:01.423Z,11.75
2022-09-17T07:20:01.270Z,11.7
2022-09-17T07:25:01.795Z,11.53
2022-09-17T07:30:01.687Z,11.52
2022-09-17T07:35:01.503Z,11.56
2022-09-17T07:40:01.531Z,11.59
2022-09-17T07:45:02.370Z,11.59
2022-09-17T07:50:01.926Z,11.57
2022-09-17T07:55:01.806Z,11.51
2022-09-17T08:00:01.587Z,11.51
2022-09-17T08:05:01.974Z,11.48
2022-09-17T08:10:02.047Z,11.76
2022-09-17T08:15:01.377Z,11.85
2022-09-17T08:20:01.444Z,11.81
2022-09-17T08:25:01.209Z,11.84
2022-09-17T08:30:01.995Z,12.43
2022-09-17T08:35:01.260Z,12.72
2022-09-17T08:40:02.207Z,13.09
2022-09-17T08:45:01.468Z,13.3
2022-09-17T08:50:01.784Z,13.59
2022-09-17T08:55:01.586Z,13.8
2022-09-17T09:00:01.519Z,13.78
2022-09-17T09:05:01.366Z,13.83
2022-09-17T09:10:01.481Z,13.93
2022-09-17T09:15:01.963Z,13.37
2022-09-17T09:20:01.177Z,13.79
2022-09-17T09:25:01.329Z,14.12
2022-09-17T09:30:01.557Z,14.33
2022-09-17T09:35:01.283Z,13.93
2022-09-17T09:40:01.826Z,13.88
2022-09-17T09:45:05.195Z,13.71
2022-09-17T09:50:01.746Z,14.14
2022-09-17T09:55:01.986Z,14.09
2022-09-17T10:00:01.558Z,14.6
2022-09-17T10:05:01.923Z,14.73
2022-09-17T10:10:01.608Z,14.14
2022-09-17T10:15:02.121Z,14.54
2022-09-17T10:20:01.263Z,14.34
2022-09-17T10:25:01.679Z,14.07
2022-09-17T10:30:01.230Z,14.07
2022-09-17T10:40:01.987Z,14.05
2022-09-17T10:45:01.688Z,13.96
2022-09-17T10:50:01.585Z,14.13
2022-09-17T10:55:01.975Z,13.79
2022-09-17T11:00:01.361Z,12.47
2022-09-17T11:05:01.652Z,12.43
2022-09-17T11:10:01.667Z,12.3
2022-09-17T11:15:02.063Z,12.74
2022-09-17T11:20:01.952Z,12.75
2022-09-17T11:25:02.014Z,13.17
2022-09-17T11:30:01.519Z,13.47
2022-09-17T11:35:01.520Z,13.62
2022-09-17T11:40:01.335Z,13.66
2022-09-17T11:45:02.130Z,13.85
2022-09-17T11:50:01.303Z,13.9
2022-09-17T11:55:01.914Z,13.92
2022-09-17T12:00:01.434Z,13.95
2022-09-17T12:05:02.008Z,13.95
2022-09-17T12:10:02.025Z,13.93
2022-09-17T12:15:01.537Z,13.58
2022-09-17T12:20:01.273Z,13.18
2022-09-17T12:25:01.428Z,12.94
2022-09-17T12:30:01.368Z,12.65
2022-09-17T12:35:01.939Z,12.9
2022-09-17T12:40:01.750Z,13.02
2022-09-17T12:45:01.501Z,13
2022-09-17T12:50:01.975Z,12.73
2022-09-17T12:55:01.655Z,11.83
2022-09-17T13:00:06.815Z,11.53
2022-09-17T13:05:02.287Z,11.9
2022-09-17T13:10:01.885Z,12.04
2022-09-17T13:15:01.419Z,12.13
2022-09-17T13:20:01.128Z,12.5
2022-09-17T13:25:01.951Z,12.47
2022-09-17T13:30:02.054Z,12.52
2022-09-17T13:35:01.529Z,12.65
2022-09-17T13:40:01.750Z,12.49
2022-09-17T13:45:01.766Z,12.35
2022-09-17T13:50:01.857Z,12.73
2022-09-17T13:55:01.372Z,13.27
2022-09-17T14:00:01.140Z,13.7
2022-09-17T14:05:01.253Z,13.85
2022-09-17T14:10:01.251Z,13.83
2022-09-17T14:15:01.967Z,13.32
2022-09-17T14:20:01.380Z,12.32
2022-09-17T14:25:02.098Z,12.01
2022-09-17T14:30:02.107Z,12.51
2022-09-17T14:35:01.568Z,12.94
2022-09-17T14:40:01.587Z,13.37
2022-09-17T14:45:01.599Z,13.34
2022-09-17T14:50:01.769Z,13.43
2022-09-17T14:55:02.051Z,13.58
2022-09-17T15:00:01.316Z,13.95
2022-09-17T15:05:02.012Z,14.08
2022-09-17T15:10:01.331Z,14.13
2022-09-17T15:15:01.946Z,13.97
2022-09-17T15:20:01.356Z,12.97
2022-09-17T15:25:01.725Z,12.22
2022-09-17T15:30:01.497Z,11.84
2022-09-17T15:35:01.786Z,11.78
2022-09-17T15:40:01.241Z,11.67
2022-09-17T15:45:02.132Z,11.73
2022-09-17T15:50:01.210Z,10.83
2022-09-17T15:55:01.639Z,10.53
2022-09-17T16:00:01.980Z,10.08
2022-09-17T16:05:01.741Z,10.08
2022-09-17T16:10:02.035Z,10.21
2022-09-17T16:15:01.391Z,10.06
2022-09-17T16:20:06.013Z,9.81
2022-09-17T16:25:01.495Z,9.76
2022-09-17T16:30:01.584Z,9.79
2022-09-17T16:35:01.659Z,9.84
2022-09-17T16:40:02.272Z,9.89
2022-09-17T16:45:01.531Z,9.85
2022-09-17T16:50:01.751Z,9.82
2022-09-17T16:55:02.030Z,9.83
2022-09-17T17:00:02.067Z,9.75
2022-09-17T17:05:01.540Z,9.74
2022-09-17T17:10:02.033Z,9.78
2022-09-17T17:15:01.262Z,9.76
2022-09-17T17:20:01.206Z,9.72
2022-09-17T17:25:01.901Z,9.71
2022-09-17T17:30:01.930Z,9.71
2022-09-17T17:35:02.070Z,9.81
2022-09-17T17:40:02.104Z,9.92
2022-09-17T17:45:01.549Z,9.96
2022-09-17T17:50:01.270Z,10.06
2022-09-17T17:55:01.903Z,10.06
2022-09-17T18:00:01.546Z,9.94
2022-09-17T18:05:04.333Z,9.85
2022-09-17T18:10:01.965Z,9.88
2022-09-17T18:15:01.236Z,9.89
2022-09-17T18:20:01.498Z,9.91
2022-09-17T18:25:01.202Z,9.86
2022-09-17T18:30:01.605Z,9.83
2022-09-17T18:35:01.134Z,9.86
2022-09-17T18:40:01.225Z,9.95
2022-09-17T18:45:01.892Z,9.96
2022-09-17T18:50:01.239Z,9.94
2022-09-17T18:55:01.222Z,10.03
2022-09-17T19:00:01.472Z,10.13
2022-09-17T19:05:01.785Z,10.09
2022-09-17T19:10:01.669Z,10.06
2022-09-17T19:15:01.818Z,10.01
2022-09-17T19:20:02.085Z,10.03
2022-09-17T19:25:01.365Z,10.01
2022-09-17T19:30:01.920Z,10.05
2022-09-17T19:35:01.681Z,10.01
2022-09-17T19:40:01.638Z,10.05
2022-09-17T19:45:02.021Z,10.03
2022-09-17T19:50:02.034Z,9.99
2022-09-17T19:55:01.959Z,10.05
2022-09-17T20:00:01.542Z,10.09
2022-09-17T20:05:01.722Z,10.18
2022-09-17T20:10:01.991Z,10.26
2022-09-17T20:15:01.764Z,10.3
2022-09-17T20:20:02.009Z,10.36
2022-09-17T20:25:01.436Z,10.41
2022-09-17T20:30:01.916Z,10.45
2022-09-17T20:35:01.171Z,10.52
2022-09-17T20:40:01.888Z,10.5
2022-09-17T20:45:01.993Z,10.4
2022-09-17T20:50:01.767Z,10.44
2022-09-17T20:55:01.383Z,10.44
2022-09-17T21:00:01.365Z,10.38
2022-09-17T21:05:02.116Z,10.39
2022-09-17T21:10:01.967Z,10.43
2022-09-17T21:15:01.985Z,10.46
2022-09-17T21:20:02.072Z,10.46
2022-09-17T21:25:01.941Z,10.5
2022-09-17T21:30:01.229Z,10.51
2022-09-17T21:35:01.815Z,10.51
2022-09-17T21:40:01.460Z,10.51
2022-09-17T21:45:01.889Z,10.52
2022-09-17T21:50:01.998Z,10.48
2022-09-17T21:55:01.422Z,10.49
2022-09-17T22:00:01.399Z,10.51
2022-09-17T22:05:01.488Z,10.5
2022-09-17T22:10:01.620Z,10.49
2022-09-17T22:15:01.358Z,10.51
2022-09-17T22:20:01.661Z,10.48
2022-09-17T22:25:01.639Z,10.46
2022-09-17T22:30:01.345Z,10.33
2022-09-17T22:35:01.417Z,10.3
2022-09-17T22:40:01.710Z,10.48
2022-09-17T22:45:01.466Z,10.42
2022-09-17T22:50:01.327Z,10.27
2022-09-17T22:55:01.939Z,10.38
2022-09-17T23:00:01.714Z,10.39
2022-09-17T23:05:01.873Z,10.39
2022-09-17T23:10:01.915Z,10.35
2022-09-17T23:15:01.945Z,10.38
2022-09-17T23:20:01.974Z,10.43
2022-09-17T23:25:01.167Z,10.39
2022-09-17T23:30:01.580Z,10.38
2022-09-17T23:35:01.950Z,10.31
2022-09-17T23:40:01.519Z,10.49
2022-09-17T23:45:01.883Z,10.49
2022-09-17T23:50:01.922Z,10.56
2022-09-17T23:55:01.740Z,10.56
